AirNav   Air Wisconsin pilot careers
 
 967 users online  

OG02 Rieben Airport
Banks, Oregon, USA

GOING TO BANKS?


FAA INFORMATION EFFECTIVE 03 JANUARY 2019

Location

FAA Identifier: OG02
Lat/Long: 45-36-37.0000N / 123-04-48.0000W
45-36.616667N / 123-04.800000W
45.6102778 / -123.0800000
(estimated)
Elevation: 200 ft. / 61 m (estimated)
Variation: 19E (1995)
From city: 2 miles E of BANKS, OR
Time zone: UTC -8 (UTC -7 during Daylight Saving Time)
Zip code: 97106

Airport Operations

Airport use: Private use. Permission required prior to landing
Activation date: 02/1996
Control tower: no
ARTCC: SEATTLE CENTER
FSS: MC MINNVILLE FLIGHT SERVICE STATION
Attendance: CONTINUOUS
Segmented circle: no

Airport Communications

WX ASOS at HIO (7 nm SE): PHONE 503-640-2984
WX ASOS at SPB (13 nm NE): 135.875 (503-543-6401)
WX ASOS at VUO (18 nm E): 135.125 (360-696-1280)

Nearby radio navigation aids

VOR radial/distance  VOR name  Freq  Var
UBGr323/16.0NEWBERG VOR/DME117.4021E
BTGr227/22.1BATTLE GROUND VORTAC116.6021E

 
NDB name  Hdg/Dist  Freq  Var  ID
BANKS214/1.935616EPND .--. -. -..
KELSO175/33.525617ELSO .-.. ... ---

Airport Services

Runway Information

Runway 9/27

Dimensions: 1300 x 30 ft. / 396 x 9 m
Surface: turf, in fair condition
RUNWAY 9  RUNWAY 27
Traffic pattern: leftleft
Obstructions: 30 ft. pline, 10 ft. from runway80 ft. trees, 10 ft. from runway

Airport Ownership and Management from official FAA records

Ownership: Privately-owned
Owner: ERNEST & LINDA RIEBEN
39125 NW MOUNTAINDALE ROAD
BANKS, OR 97106
Phone 503-647-2122
Manager: ERNEST RIEBEN
39125 NW MOUNTAINDALE ROAD
BANKS, OR 97106
Phone 503-647-2122

Airport Operational Statistics

Aircraft based on the field: 1
Single engine airplanes: 1
    

Additional Remarks

FOR CD CTC PORTLAND APCH AT 503-493-7545.

Instrument Procedures

There are no published instrument procedures at OG02.

Some nearby airports with instrument procedures:

KHIO - Portland-Hillsboro Airport (7 nm SE)
KSPB - Scappoose Industrial Airpark (13 nm NE)
KVUO - Pearson Field Airport (18 nm E)
KPDX - Portland International Airport (20 nm E)
KMMV - Mc Minnville Municipal Airport (25 nm S)
 
Loc | Ops | Rwys | IFR | FBO | Links
Com | Nav | Svcs | Stats | Notes
Area around OG02 (Rieben Airport)
 
Road maps at: MapQuest Bing Google
 
Aerial photo
WARNING: Photo may not be current or correct
Aerial photo of OG02 (Rieben Airport)
Do you have a better or more recent aerial photo of Rieben Airport that you would like to share? If so, please send us your photo.

 
Sectional chart

 
Airport distance calculator
Flying to Rieben Airport? Find the distance to fly.

From to OG02

Sunrise and sunset
Times for 20-Jan-2019
 Local
(UTC-8)
 Zulu
(UTC)
Morning civil twilight07:1415:14
Sunrise07:4715:47
Sunset17:0001:00
Evening civil twilight17:3301:33

Current date and time
Zulu (UTC)  20-Jan-2019 22:36:15
Local (UTC-8)  20-Jan-2019 14:36:15
 
METAR
KHIO 
7nm SE 
202153Z 00000KT 10SM BKN005 OVC025 07/05 A2989 RMK AO2 RAE15 SLP122 P0000 T00720050
KSPB 
13nm NE 
202203Z AUTO 12004KT 10SM FEW004 OVC085 08/06 A2989 RMK AO2 T00830061
KVUO 
18nm E 
202223Z AUTO 14003KT 10SM FEW008 BKN022 OVC060 07/06 A2989 RMK AO2 T00720056
TAF
KHIO 
7nm SE 
202105Z 2021/2118 20006KT P6SM -RA BKN005 BKN017 OVC030 FM210400 00000KT 2SM BR SCT002 BKN035 FM210800 00000KT 1/2SM FG VV002 FM211700 VRB03KT 2SM BR OVC006
NOTAMs
Click for the latest NOTAMs
NOTAMs are issued by the DoD/FAA and will open in a separate window not controlled by AirNav.

 

 
 

Would you like to see your business listed on this page?

 If your business provides an interesting product or service to pilots, flight crews, aircraft, or users of the Rieben Airport, you should consider listing it here.  To start the listing process, click on the button below
 
Add a business
 

Other Pages about Rieben Airport

Update a link
 
Copyright © AirNav, LLC. All rights reserved. Privacy Policy  Contact